createdAt,value
2022-11-24T00:02:17.349Z,23.77
2022-11-24T00:04:43.979Z,24.20
2022-11-24T00:07:10.514Z,22.70
2022-11-24T00:09:37.018Z,25.90
2022-11-24T00:12:03.714Z,23.63
2022-11-24T00:14:30.204Z,23.73
2022-11-24T00:16:56.927Z,25.30
2022-11-24T00:19:23.552Z,23.60
2022-11-24T00:21:50.026Z,22.47
2022-11-24T00:24:16.533Z,22.73
2022-11-24T00:26:43.402Z,24.33
2022-11-24T00:29:11.252Z,24.07
2022-11-24T00:31:38.656Z,25.03
2022-11-24T00:34:06.993Z,23.63
2022-11-24T00:36:34.603Z,25.27
2022-11-24T00:39:02.270Z,25.07
2022-11-24T00:41:29.320Z,26.80
2022-11-24T00:43:56.191Z,25.43
2022-11-24T00:46:23.036Z,25.00
2022-11-24T00:48:49.946Z,25.97
2022-11-24T00:51:17.190Z,24.90
2022-11-24T00:53:43.983Z,23.70
2022-11-24T00:56:11.318Z,25.33
2022-11-24T00:58:37.880Z,25.37
2022-11-24T01:01:05.573Z,25.37
2022-11-24T01:03:32.603Z,26.57
2022-11-24T01:06:03.372Z,24.77
2022-11-24T01:08:29.861Z,26.87
2022-11-24T01:11:06.035Z,24.87
2022-11-24T01:13:32.507Z,26.07
2022-11-24T01:15:59.076Z,26.60
2022-11-24T01:18:25.733Z,26.33
2022-11-24T01:20:52.227Z,26.07
2022-11-24T01:23:18.695Z,25.93
2022-11-24T01:25:45.199Z,24.03
2022-11-24T01:28:11.704Z,25.97
2022-11-24T01:30:38.214Z,25.17
2022-11-24T01:33:05.227Z,26.83
2022-11-24T01:35:31.713Z,25.20
2022-11-24T01:37:58.278Z,26.07
2022-11-24T01:40:25.219Z,27.63
2022-11-24T01:42:52.782Z,26.37
2022-11-24T01:45:36.413Z,25.60
2022-11-24T01:48:05.466Z,34.37
2022-11-24T01:50:32.310Z,38.13
2022-11-24T01:52:58.876Z,23.07
2022-11-24T01:55:27.327Z,27.93
2022-11-24T01:57:57.385Z,24.03
2022-11-24T02:00:24.115Z,21.93
2022-11-24T02:02:51.032Z,22.03
2022-11-24T02:05:20.448Z,23.23
2022-11-24T02:07:47.917Z,31.73
2022-11-24T02:10:15.127Z,24.27
2022-11-24T02:12:44.497Z,20.93
2022-11-24T02:15:12.372Z,21.70
2022-11-24T02:17:38.858Z,20.87
2022-11-24T02:20:06.655Z,20.67
2022-11-24T02:22:40.773Z,19.57
2022-11-24T02:25:13.647Z,22.17
2022-11-24T02:27:40.664Z,21.30
2022-11-24T02:30:07.366Z,19.57
2022-11-24T02:32:34.136Z,20.03
2022-11-24T02:35:05.057Z,20.23
2022-11-24T02:37:31.606Z,21.63
2022-11-24T02:39:59.868Z,20.77
2022-11-24T02:42:27.465Z,22.07
2022-11-24T02:44:55.584Z,20.77
2022-11-24T02:47:22.072Z,20.97
2022-11-24T02:49:48.607Z,20.50
2022-11-24T02:52:15.901Z,22.03
2022-11-24T02:54:42.378Z,19.00
2022-11-24T02:57:09.170Z,20.53
2022-11-24T02:59:35.743Z,22.70
2022-11-24T03:02:03.061Z,23.63
2022-11-24T03:04:29.655Z,21.17
2022-11-24T03:06:56.139Z,25.33
2022-11-24T03:09:22.618Z,22.37
2022-11-24T03:11:49.148Z,22.13
2022-11-24T03:14:15.723Z,21.10
2022-11-24T03:16:42.330Z,21.83
2022-11-24T03:19:08.860Z,23.33
2022-11-24T03:21:36.539Z,24.33
2022-11-24T03:24:03.128Z,23.10
2022-11-24T03:26:29.708Z,22.70
2022-11-24T03:28:57.274Z,22.60
2022-11-24T03:31:24.002Z,23.67
2022-11-24T03:33:50.654Z,25.93
2022-11-24T03:36:17.229Z,24.90
2022-11-24T03:38:43.969Z,20.50
2022-11-24T03:41:10.954Z,26.30
2022-11-24T03:43:43.133Z,28.70
2022-11-24T03:46:10.761Z,26.03
2022-11-24T03:48:37.431Z,24.73
2022-11-24T03:51:04.118Z,24.57
2022-11-24T03:53:31.786Z,24.37
2022-11-24T03:55:58.385Z,24.97
2022-11-24T03:58:25.139Z,26.33
2022-11-24T04:00:52.422Z,23.67
2022-11-24T04:03:19.317Z,23.60
2022-11-24T04:05:46.124Z,23.60
2022-11-24T04:08:12.976Z,22.77
2022-11-24T04:10:39.723Z,23.13
2022-11-24T04:13:11.338Z,22.07
2022-11-24T04:15:38.638Z,23.73
2022-11-24T04:18:05.167Z,24.77
2022-11-24T04:20:31.778Z,23.53
2022-11-24T04:22:58.301Z,22.23
2022-11-24T04:25:24.804Z,21.73
2022-11-24T04:27:52.861Z,23.37
2022-11-24T04:30:19.923Z,27.10
2022-11-24T04:32:46.507Z,26.43
2022-11-24T04:35:13.124Z,25.60
2022-11-24T04:37:39.676Z,27.07
2022-11-24T04:40:07.225Z,27.77
2022-11-24T04:42:33.714Z,31.40
2022-11-24T04:45:00.715Z,28.33
2022-11-24T04:47:27.765Z,29.17
2022-11-24T04:49:54.427Z,26.50
2022-11-24T04:52:21.895Z,25.20
2022-11-24T04:54:48.816Z,28.23
2022-11-24T04:57:16.615Z,24.50
2022-11-24T04:59:43.190Z,27.20
2022-11-24T05:02:09.964Z,25.77
2022-11-24T05:04:37.027Z,28.60
2022-11-24T05:07:04.165Z,26.67
2022-11-24T05:09:54.919Z,26.27
2022-11-24T05:12:17.230Z,26.70
2022-11-24T05:14:43.693Z,28.87
2022-11-24T05:17:10.134Z,30.83
2022-11-24T05:19:36.607Z,26.43
2022-11-24T05:22:03.222Z,25.93
2022-11-24T05:24:29.682Z,28.10
2022-11-24T05:26:56.150Z,30.00
2022-11-24T05:29:22.605Z,29.70
2022-11-24T05:31:49.063Z,27.10
2022-11-24T05:34:15.681Z,28.57
2022-11-24T05:36:54.476Z,27.80
2022-11-24T05:39:21.565Z,27.80
2022-11-24T05:41:48.067Z,28.47
2022-11-24T05:44:14.518Z,28.90
2022-11-24T05:46:41.075Z,28.63
2022-11-24T05:49:07.582Z,26.73
2022-11-24T05:51:34.421Z,25.93
2022-11-24T05:54:00.910Z,26.90
2022-11-24T05:56:27.341Z,24.13
2022-11-24T05:58:53.795Z,24.07
2022-11-24T06:01:20.214Z,25.03
2022-11-24T06:03:46.620Z,26.40
2022-11-24T06:06:13.026Z,23.57
2022-11-24T06:08:39.500Z,25.77
2022-11-24T06:11:18.242Z,27.00
2022-11-24T06:13:45.554Z,25.33
2022-11-24T06:16:12.670Z,25.40
2022-11-24T06:18:39.384Z,26.47
2022-11-24T06:21:12.833Z,25.77
2022-11-24T06:23:39.712Z,48.90
2022-11-24T06:26:06.385Z,29.53
2022-11-24T06:28:32.848Z,25.67
2022-11-24T06:31:08.087Z,26.23
2022-11-24T06:33:37.062Z,26.17
2022-11-24T06:36:05.210Z,27.53
2022-11-24T06:38:31.873Z,27.57
2022-11-24T06:41:02.364Z,26.07
2022-11-24T06:43:31.969Z,24.67
2022-11-24T06:45:58.740Z,28.37
2022-11-24T06:48:26.074Z,51.03
2022-11-24T06:50:53.076Z,56.80
2022-11-24T06:53:19.826Z,30.17
2022-11-24T06:55:47.060Z,28.20
2022-11-24T06:58:13.475Z,24.47
2022-11-24T07:00:39.988Z,22.70
2022-11-24T07:03:06.606Z,26.50
2022-11-24T07:05:33.048Z,26.43
2022-11-24T07:08:00.539Z,24.70
2022-11-24T07:10:27.138Z,26.20
2022-11-24T07:12:53.545Z,26.97
2022-11-24T07:15:19.947Z,27.47
2022-11-24T07:17:46.431Z,34.57
2022-11-24T07:20:12.835Z,28.77
2022-11-24T07:22:39.222Z,28.00
2022-11-24T07:25:07.512Z,25.13
2022-11-24T07:27:33.976Z,23.50
2022-11-24T07:30:00.414Z,25.80
2022-11-24T07:32:26.972Z,23.37
2022-11-24T07:34:53.374Z,24.70
2022-11-24T07:37:19.855Z,24.70
2022-11-24T07:39:46.365Z,25.83
2022-11-24T07:42:12.790Z,23.80
2022-11-24T07:44:40.688Z,24.27
2022-11-24T07:47:07.426Z,25.30
2022-11-24T07:49:33.838Z,24.80
2022-11-24T07:52:00.998Z,26.97
2022-11-24T07:54:27.430Z,24.30
2022-11-24T07:56:53.837Z,24.30
2022-11-24T07:59:20.395Z,26.43
2022-11-24T08:01:46.910Z,25.13
2022-11-24T08:04:13.567Z,23.67
2022-11-24T08:06:44.677Z,21.83
2022-11-24T08:09:13.769Z,19.60
2022-11-24T08:11:40.327Z,23.00
2022-11-24T08:14:06.994Z,21.83
2022-11-24T08:16:33.591Z,22.30
2022-11-24T08:19:00.062Z,21.30
2022-11-24T08:21:26.508Z,23.87
2022-11-24T08:23:56.781Z,22.77
2022-11-24T08:26:24.980Z,21.63
2022-11-24T08:28:58.400Z,21.50
2022-11-24T08:31:27.349Z,23.27
2022-11-24T08:33:55.300Z,24.73
2022-11-24T08:36:21.730Z,23.17
2022-11-24T08:38:49.458Z,22.37
2022-11-24T08:41:17.018Z,24.17
2022-11-24T08:43:43.490Z,21.87
2022-11-24T08:46:11.491Z,24.93
2022-11-24T08:48:37.966Z,24.17
2022-11-24T08:51:08.558Z,22.87
2022-11-24T08:53:35.011Z,25.27
2022-11-24T08:56:01.972Z,24.10
2022-11-24T08:58:28.814Z,21.97
2022-11-24T09:00:55.410Z,23.43
2022-11-24T09:03:22.338Z,22.27
2022-11-24T09:05:52.908Z,24.17
2022-11-24T09:08:19.583Z,25.23
2022-11-24T09:10:46.716Z,24.80
2022-11-24T09:13:13.246Z,23.83
2022-11-24T09:15:39.684Z,28.93
2022-11-24T09:18:06.170Z,23.43
2022-11-24T09:20:47.640Z,24.80
2022-11-24T09:23:14.686Z,23.97
2022-11-24T09:25:41.184Z,25.00
2022-11-24T09:28:07.659Z,25.90
2022-11-24T09:30:34.219Z,24.70
2022-11-24T09:33:00.822Z,24.33
2022-11-24T09:35:27.378Z,25.63
2022-11-24T09:37:53.940Z,23.00
2022-11-24T09:40:21.078Z,23.20
2022-11-24T09:42:58.060Z,25.53
2022-11-24T09:45:49.370Z,23.27
2022-11-24T09:48:14.336Z,23.37
2022-11-24T09:50:49.680Z,22.23
2022-11-24T09:53:19.193Z,23.83
2022-11-24T09:55:52.578Z,24.13
2022-11-24T09:58:25.013Z,25.97
2022-11-24T10:00:53.297Z,23.70
2022-11-24T10:03:23.344Z,26.77
2022-11-24T10:05:50.754Z,26.13
2022-11-24T10:08:35.649Z,27.60
2022-11-24T10:11:04.190Z,27.87
2022-11-24T10:13:33.445Z,24.27
2022-11-24T10:16:00.124Z,26.73
2022-11-24T10:18:32.853Z,25.50
2022-11-24T10:20:59.390Z,25.37
2022-11-24T10:23:44.861Z,25.60
2022-11-24T10:26:31.557Z,25.77
2022-11-24T10:28:58.109Z,25.33
2022-11-24T10:31:38.103Z,26.30
2022-11-24T10:34:16.167Z,24.97
2022-11-24T10:36:45.573Z,26.13
2022-11-24T10:39:23.823Z,26.57
2022-11-24T10:41:50.261Z,28.43
2022-11-24T10:44:16.793Z,27.03
2022-11-24T10:46:43.679Z,27.23
2022-11-24T10:49:16.596Z,28.10
2022-11-24T10:51:55.024Z,31.53
2022-11-24T10:54:24.614Z,30.77
2022-11-24T10:56:51.754Z,31.23
2022-11-24T10:59:24.336Z,30.57
2022-11-24T11:01:51.718Z,32.53
2022-11-24T11:04:24.880Z,30.90
2022-11-24T11:06:51.366Z,30.70
2022-11-24T11:09:19.651Z,28.83
2022-11-24T11:11:48.906Z,28.00
2022-11-24T11:14:32.013Z,31.97
2022-11-24T11:16:58.875Z,30.33
2022-11-24T11:19:50.502Z,29.33
2022-11-24T11:22:19.479Z,27.80
2022-11-24T11:24:47.252Z,30.37
2022-11-24T11:27:21.057Z,36.57
2022-11-24T11:35:21.659Z,29.10
2022-11-24T11:37:49.125Z,30.67
2022-11-24T11:40:21.768Z,28.57
2022-11-24T11:43:05.766Z,30.70
2022-11-24T11:45:36.259Z,30.57
2022-11-24T11:48:03.139Z,31.50
2022-11-24T11:51:21.749Z,32.47
2022-11-24T11:53:46.496Z,30.90
2022-11-24T11:56:20.022Z,33.63
2022-11-24T11:58:52.580Z,32.93
2022-11-24T12:01:18.976Z,34.73
2022-11-24T12:03:55.764Z,35.67
2022-11-24T12:06:22.275Z,35.37
2022-11-24T12:09:18.508Z,36.17
2022-11-24T12:11:44.184Z,37.50
2022-11-24T12:14:10.602Z,36.60
2022-11-24T12:16:45.658Z,31.30
2022-11-24T12:19:27.458Z,35.70
2022-11-24T12:22:07.773Z,34.60
2022-11-24T12:24:53.207Z,33.67
2022-11-24T12:27:26.725Z,34.90
2022-11-24T12:30:00.086Z,33.30
2022-11-24T12:32:32.426Z,33.57
2022-11-24T12:38:29.057Z,34.20
2022-11-24T12:41:18.349Z,34.10
2022-11-24T12:43:48.044Z,33.60
2022-11-24T12:46:33.320Z,36.23
2022-11-24T12:49:05.551Z,34.80
2022-11-24T12:51:58.238Z,39.70
2022-11-24T12:54:25.590Z,39.60
2022-11-24T12:57:10.451Z,35.97
2022-11-24T12:59:43.865Z,39.87
2022-11-24T13:02:24.570Z,36.67
2022-11-24T13:04:51.303Z,40.57
2022-11-24T13:07:38.065Z,36.40
2022-11-24T13:10:40.089Z,36.90
2022-11-24T13:13:11.454Z,38.93
2022-11-24T13:16:07.084Z,43.90
2022-11-24T13:18:47.408Z,42.40
2022-11-24T13:21:30.694Z,39.07
2022-11-24T13:24:02.096Z,37.97
2022-11-24T13:26:30.636Z,40.60
2022-11-24T13:29:12.929Z,41.93
2022-11-24T13:31:44.838Z,41.90
2022-11-24T13:34:30.223Z,40.20
2022-11-24T13:36:56.740Z,43.80
2022-11-24T13:39:50.830Z,44.33
2022-11-24T13:42:41.653Z,42.57
2022-11-24T13:45:07.002Z,37.20
2022-11-24T13:47:36.153Z,48.50
2022-11-24T13:50:07.255Z,43.83
2022-11-24T13:52:41.656Z,42.67
2022-11-24T13:55:11.641Z,40.20
2022-11-24T13:57:39.737Z,41.20
2022-11-24T14:00:29.459Z,43.37
2022-11-24T14:03:16.331Z,40.63
2022-11-24T14:05:47.123Z,44.87
2022-11-24T14:08:19.940Z,45.37
2022-11-24T14:10:46.834Z,44.10
2022-11-24T14:13:32.889Z,43.00
2022-11-24T14:16:04.420Z,43.63
2022-11-24T14:18:34.518Z,39.37
2022-11-24T14:21:16.191Z,42.83
2022-11-24T14:23:46.954Z,43.67
2022-11-24T14:26:19.395Z,43.60
2022-11-24T14:28:46.601Z,47.23
2022-11-24T14:31:24.207Z,48.70
2022-11-24T14:33:51.583Z,45.47
2022-11-24T14:36:18.700Z,50.47
2022-11-24T14:38:45.515Z,48.47
2022-11-24T14:41:28.252Z,49.37
2022-11-24T14:44:05.546Z,51.43
2022-11-24T14:46:32.208Z,48.57
2022-11-24T14:48:58.889Z,46.77
2022-11-24T14:51:30.563Z,52.27
2022-11-24T14:54:12.489Z,50.43
2022-11-24T14:56:39.976Z,48.43
2022-11-24T14:59:22.783Z,48.83
2022-11-24T15:01:49.322Z,47.57
2022-11-24T15:04:32.541Z,54.17
2022-11-24T15:07:15.214Z,46.53
2022-11-24T15:09:52.524Z,47.30
2022-11-24T15:12:28.963Z,50.80
2022-11-24T15:14:57.892Z,52.37
2022-11-24T15:17:26.403Z,56.33
2022-11-24T15:20:07.686Z,52.13
2022-11-24T15:22:41.455Z,46.53
2022-11-24T15:25:40.895Z,45.90
2022-11-24T15:28:08.291Z,46.07
2022-11-24T15:30:35.622Z,47.63
2022-11-24T15:33:02.493Z,53.77
2022-11-24T15:35:30.709Z,50.43
2022-11-24T15:37:57.566Z,50.97
2022-11-24T15:40:24.491Z,49.70
2022-11-24T15:42:55.974Z,64.90
2022-11-24T15:45:24.080Z,52.10
2022-11-24T15:47:50.974Z,51.47
2022-11-24T15:50:17.573Z,52.60
2022-11-24T15:52:44.556Z,51.20
2022-11-24T15:55:17.524Z,51.90
2022-11-24T15:57:44.399Z,51.87
2022-11-24T16:00:14.900Z,52.30
2022-11-24T16:02:41.383Z,49.20
2022-11-24T16:05:09.078Z,55.23
2022-11-24T16:07:35.664Z,50.10
2022-11-24T16:10:02.300Z,50.83
2022-11-24T16:12:29.020Z,52.83
2022-11-24T16:14:55.571Z,51.63
2022-11-24T16:17:22.015Z,54.57
2022-11-24T16:19:56.902Z,54.07
2022-11-24T16:22:27.121Z,52.33
2022-11-24T16:24:53.774Z,58.17
2022-11-24T16:27:20.330Z,55.17
2022-11-24T16:29:46.942Z,63.00
2022-11-24T16:32:13.423Z,65.03
2022-11-24T16:34:39.840Z,56.50
2022-11-24T16:37:06.494Z,60.80
2022-11-24T16:39:33.037Z,50.33
2022-11-24T16:42:00.694Z,51.00
2022-11-24T16:44:27.444Z,50.67
2022-11-24T16:46:54.313Z,50.03
2022-11-24T16:49:40.929Z,46.13
2022-11-24T16:52:08.863Z,45.50
2022-11-24T16:54:35.739Z,45.17
2022-11-24T16:57:02.345Z,43.27
2022-11-24T16:59:28.994Z,42.20
2022-11-24T17:01:55.786Z,43.23
2022-11-24T17:04:22.381Z,40.37
2022-11-24T17:06:48.960Z,46.10
2022-11-24T17:09:15.614Z,44.67
2022-11-24T17:11:42.326Z,44.37
2022-11-24T17:14:09.731Z,48.30
2022-11-24T17:16:36.806Z,53.33
2022-11-24T17:19:03.502Z,51.10
2022-11-24T17:21:30.190Z,49.93
2022-11-24T17:23:58.066Z,51.60
2022-11-24T17:26:25.427Z,52.73
2022-11-24T17:28:52.380Z,50.10
2022-11-24T17:31:23.725Z,51.27
2022-11-24T17:33:50.908Z,95.13
2022-11-24T17:36:17.515Z,60.33
2022-11-24T17:38:44.237Z,46.80
2022-11-24T17:41:11.498Z,47.87
2022-11-24T17:43:38.125Z,44.93
2022-11-24T17:46:05.250Z,56.00
2022-11-24T17:48:32.582Z,54.80
2022-11-24T17:51:00.276Z,53.93
2022-11-24T17:53:27.129Z,49.53
2022-11-24T17:55:53.968Z,53.73
2022-11-24T17:58:20.676Z,52.07
2022-11-24T18:00:49.349Z,48.30
2022-11-24T18:03:16.012Z,49.43
2022-11-24T18:05:42.683Z,50.63
2022-11-24T18:08:09.354Z,73.40
2022-11-24T18:10:36.097Z,75.13
2022-11-24T18:13:03.127Z,46.83
2022-11-24T18:15:30.626Z,46.40
2022-11-24T18:17:57.134Z,44.20
2022-11-24T18:20:26.138Z,49.83
2022-11-24T18:23:08.281Z,49.37
2022-11-24T18:25:37.240Z,46.90
2022-11-24T18:28:04.146Z,45.57
2022-11-24T18:30:30.689Z,42.07
2022-11-24T18:32:58.387Z,46.03
2022-11-24T18:35:24.921Z,45.13
2022-11-24T18:37:51.575Z,50.47
2022-11-24T18:40:18.301Z,51.13
2022-11-24T18:42:45.038Z,51.73
2022-11-24T18:45:11.828Z,69.60
2022-11-24T18:47:38.442Z,68.40
2022-11-24T18:50:05.366Z,58.17
2022-11-24T18:52:32.305Z,48.13
2022-11-24T18:55:03.980Z,51.53
2022-11-24T18:57:31.649Z,53.73
2022-11-24T18:59:58.607Z,44.97
2022-11-24T19:02:25.392Z,43.87
2022-11-24T19:04:51.873Z,43.10
2022-11-24T19:07:18.479Z,46.23
2022-11-24T19:09:45.282Z,48.63
2022-11-24T19:12:11.909Z,54.10
2022-11-24T19:14:38.323Z,52.80
2022-11-24T19:17:05.249Z,44.87
2022-11-24T19:19:34.370Z,37.57
2022-11-24T19:22:01.602Z,39.87
2022-11-24T19:24:28.374Z,49.27
2022-11-24T19:26:55.099Z,46.23
2022-11-24T19:29:22.008Z,52.17
2022-11-24T19:31:48.995Z,61.43
2022-11-24T19:34:15.966Z,45.87
2022-11-24T19:36:43.988Z,38.87
2022-11-24T19:39:15.415Z,92.50
2022-11-24T19:41:42.361Z,69.43
2022-11-24T19:44:11.038Z,59.33
2022-11-24T19:46:38.015Z,54.23
2022-11-24T19:49:04.760Z,66.07
2022-11-24T19:51:33.045Z,56.00
2022-11-24T19:54:00.264Z,76.90
2022-11-24T19:56:28.094Z,67.10
2022-11-24T19:58:55.740Z,64.27
2022-11-24T20:01:22.549Z,70.63
2022-11-24T20:03:54.565Z,60.93
2022-11-24T20:06:21.703Z,51.97
2022-11-24T20:08:48.474Z,52.13
2022-11-24T20:11:16.552Z,62.47
2022-11-24T20:13:44.437Z,76.07
2022-11-24T20:16:12.414Z,77.10
2022-11-24T20:18:42.389Z,69.60
2022-11-24T20:21:10.779Z,52.40
2022-11-24T20:23:37.521Z,49.60
2022-11-24T20:26:12.119Z,54.43
2022-11-24T20:28:39.432Z,66.63
2022-11-24T20:31:08.451Z,50.73
2022-11-24T20:33:35.699Z,45.07
2022-11-24T20:36:05.817Z,56.20
2022-11-24T20:38:34.454Z,57.53
2022-11-24T20:41:09.074Z,41.33
2022-11-24T20:43:36.820Z,46.63
2022-11-24T20:46:04.225Z,55.57
2022-11-24T20:48:30.977Z,47.63
2022-11-24T20:51:02.554Z,42.63
2022-11-24T20:53:29.104Z,42.23
2022-11-24T20:56:06.089Z,41.10
2022-11-24T20:58:35.998Z,43.27
2022-11-24T21:01:10.186Z,42.07
2022-11-24T21:03:42.609Z,43.20
2022-11-24T21:06:11.078Z,52.23
2022-11-24T21:08:42.090Z,52.90
2022-11-24T21:11:10.370Z,53.53
2022-11-24T21:13:37.672Z,50.97
2022-11-24T21:16:21.193Z,47.20
2022-11-24T21:18:50.803Z,46.03
2022-11-24T21:21:17.918Z,49.87
2022-11-24T21:23:47.325Z,50.60
2022-11-24T21:26:16.903Z,46.47
2022-11-24T21:28:44.587Z,48.37
2022-11-24T21:31:12.558Z,48.10
2022-11-24T21:33:43.298Z,47.60
2022-11-24T21:36:09.918Z,48.63
2022-11-24T21:38:36.514Z,47.23
2022-11-24T21:41:04.423Z,50.83
2022-11-24T21:43:31.839Z,51.97
2022-11-24T21:46:08.756Z,54.63
2022-11-24T21:48:36.072Z,50.20
2022-11-24T21:51:03.801Z,52.73
2022-11-24T21:53:31.299Z,54.30
2022-11-24T21:55:58.581Z,47.53
2022-11-24T21:58:25.652Z,51.80
2022-11-24T22:00:52.809Z,50.57
2022-11-24T22:03:19.960Z,46.77
2022-11-24T22:05:56.496Z,50.90
2022-11-24T22:08:23.835Z,46.33
2022-11-24T22:10:50.609Z,49.30
2022-11-24T22:13:17.805Z,48.87
2022-11-24T22:15:44.467Z,49.00
2022-11-24T22:18:11.103Z,52.77
2022-11-24T22:20:37.756Z,43.57
2022-11-24T22:23:04.379Z,47.97
2022-11-24T22:25:30.871Z,47.47
2022-11-24T22:27:58.321Z,49.33
2022-11-24T22:30:24.907Z,47.53
2022-11-24T22:32:51.404Z,49.57
2022-11-24T22:35:17.916Z,50.33
2022-11-24T22:37:44.358Z,53.67
2022-11-24T22:40:10.947Z,81.37
2022-11-24T22:42:37.505Z,52.40
2022-11-24T22:45:04.135Z,47.57
2022-11-24T22:47:30.551Z,53.63
2022-11-24T22:49:56.996Z,50.13
2022-11-24T22:52:23.410Z,49.90
2022-11-24T22:54:49.888Z,45.07
2022-11-24T22:57:16.337Z,44.50
2022-11-24T22:59:42.818Z,44.33
2022-11-24T23:02:09.216Z,48.07
2022-11-24T23:04:35.885Z,55.20
2022-11-24T23:07:02.544Z,50.07
2022-11-24T23:09:29.270Z,49.37
2022-11-24T23:11:55.746Z,51.17
2022-11-24T23:14:22.168Z,50.00
2022-11-24T23:16:48.676Z,48.70
2022-11-24T23:19:15.215Z,49.77
2022-11-24T23:21:41.597Z,51.33
2022-11-24T23:24:08.556Z,47.70
2022-11-24T23:26:36.153Z,56.10
2022-11-24T23:29:03.676Z,50.97
2022-11-24T23:31:30.277Z,51.80
2022-11-24T23:34:00.875Z,57.87
2022-11-24T23:36:27.887Z,59.90
2022-11-24T23:38:54.488Z,53.43
2022-11-24T23:41:25.260Z,51.83
2022-11-24T23:43:52.409Z,53.10
2022-11-24T23:46:20.563Z,54.67
2022-11-24T23:48:47.713Z,60.00
2022-11-24T23:51:21.944Z,60.53
2022-11-24T23:53:49.216Z,59.67
2022-11-24T23:56:17.170Z,67.17
2022-11-24T23:58:43.944Z,59.63
